sensor_id;sensor_type;location;lat;lon;timestamp;P1;durP1;ratioP1;P2;durP2;ratioP2
14100;SDS011;7127;49.372;8.166;2022-08-14T00:20:53;2.07;;;1.40;;
14100;SDS011;7127;49.372;8.166;2022-08-14T00:23:39;1.33;;;1.20;;
14100;SDS011;7127;49.372;8.166;2022-08-14T00:26:44;1.63;;;1.50;;
14100;SDS011;7127;49.372;8.166;2022-08-14T00:29:41;1.63;;;1.53;;
14100;SDS011;7127;49.372;8.166;2022-08-14T00:35:47;1.60;;;1.50;;
14100;SDS011;7127;49.372;8.166;2022-08-14T00:38:34;1.50;;;1.30;;
14100;SDS011;7127;49.372;8.166;2022-08-14T00:41:36;1.80;;;1.30;;
14100;SDS011;7127;49.372;8.166;2022-08-14T00:44:31;2.73;;;1.60;;
14100;SDS011;7127;49.372;8.166;2022-08-14T00:47:21;1.60;;;1.50;;
14100;SDS011;7127;49.372;8.166;2022-08-14T00:50:11;4.13;;;1.80;;
14100;SDS011;7127;49.372;8.166;2022-08-14T00:56:06;1.53;;;1.43;;
14100;SDS011;7127;49.372;8.166;2022-08-14T00:58:59;1.50;;;1.40;;
14100;SDS011;7127;49.372;8.166;2022-08-14T01:01:45;1.57;;;1.47;;
14100;SDS011;7127;49.372;8.166;2022-08-14T01:04:25;2.87;;;1.40;;
14100;SDS011;7127;49.372;8.166;2022-08-14T01:07:24;1.33;;;1.23;;
14100;SDS011;7127;49.372;8.166;2022-08-14T01:10:01;1.90;;;1.80;;
14100;SDS011;7127;49.372;8.166;2022-08-14T01:12:43;2.13;;;1.87;;
14100;SDS011;7127;49.372;8.166;2022-08-14T01:15:29;1.70;;;1.60;;
14100;SDS011;7127;49.372;8.166;2022-08-14T01:18:34;3.50;;;1.57;;
14100;SDS011;7127;49.372;8.166;2022-08-14T01:21:36;2.20;;;1.50;;
14100;SDS011;7127;49.372;8.166;2022-08-14T01:27:26;1.53;;;1.43;;
14100;SDS011;7127;49.372;8.166;2022-08-14T01:30:23;2.00;;;1.80;;
14100;SDS011;7127;49.372;8.166;2022-08-14T01:32:57;1.70;;;1.60;;
14100;SDS011;7127;49.372;8.166;2022-08-14T01:35:40;1.70;;;1.60;;
14100;SDS011;7127;49.372;8.166;2022-08-14T01:38:17;1.87;;;1.77;;
14100;SDS011;7127;49.372;8.166;2022-08-14T01:40:58;2.10;;;1.90;;
14100;SDS011;7127;49.372;8.166;2022-08-14T01:43:44;1.90;;;1.80;;
14100;SDS011;7127;49.372;8.166;2022-08-14T01:46:36;1.70;;;1.60;;
14100;SDS011;7127;49.372;8.166;2022-08-14T01:49:46;1.43;;;1.33;;
14100;SDS011;7127;49.372;8.166;2022-08-14T01:52:59;1.50;;;1.40;;
14100;SDS011;7127;49.372;8.166;2022-08-14T01:59:17;1.60;;;1.47;;
14100;SDS011;7127;49.372;8.166;2022-08-14T02:02:20;1.67;;;1.57;;
14100;SDS011;7127;49.372;8.166;2022-08-14T02:05:06;1.83;;;1.73;;
14100;SDS011;7127;49.372;8.166;2022-08-14T02:08:02;1.70;;;1.60;;
14100;SDS011;7127;49.372;8.166;2022-08-14T02:10:59;4.87;;;1.60;;
14100;SDS011;7127;49.372;8.166;2022-08-14T02:13:54;1.90;;;1.77;;
14100;SDS011;7127;49.372;8.166;2022-08-14T02:16:46;1.70;;;1.60;;
14100;SDS011;7127;49.372;8.166;2022-08-14T02:19:40;1.90;;;1.70;;
14100;SDS011;7127;49.372;8.166;2022-08-14T02:22:50;1.97;;;1.77;;
14100;SDS011;7127;49.372;8.166;2022-08-14T02:38:54;1.70;;;1.60;;
14100;SDS011;7127;49.372;8.166;2022-08-14T02:41:46;1.83;;;1.73;;
14100;SDS011;7127;49.372;8.166;2022-08-14T02:44:54;1.60;;;1.50;;
14100;SDS011;7127;49.372;8.166;2022-08-14T02:47:37;1.80;;;1.70;;
14100;SDS011;7127;49.372;8.166;2022-08-14T02:50:24;1.77;;;1.67;;
14100;SDS011;7127;49.372;8.166;2022-08-14T02:53:08;3.47;;;1.73;;
14100;SDS011;7127;49.372;8.166;2022-08-14T02:59:00;1.63;;;1.53;;
14100;SDS011;7127;49.372;8.166;2022-08-14T03:01:36;1.77;;;1.67;;
14100;SDS011;7127;49.372;8.166;2022-08-14T03:07:12;1.77;;;1.67;;
14100;SDS011;7127;49.372;8.166;2022-08-14T03:09:56;1.57;;;1.47;;
14100;SDS011;7127;49.372;8.166;2022-08-14T03:12:31;1.80;;;1.70;;
14100;SDS011;7127;49.372;8.166;2022-08-14T03:15:05;3.00;;;2.00;;
14100;SDS011;7127;49.372;8.166;2022-08-14T03:17:48;1.67;;;1.57;;
14100;SDS011;7127;49.372;8.166;2022-08-14T03:20:22;2.23;;;1.80;;
14100;SDS011;7127;49.372;8.166;2022-08-14T03:22:59;2.30;;;1.80;;
14100;SDS011;7127;49.372;8.166;2022-08-14T03:25:44;1.90;;;1.80;;
14100;SDS011;7127;49.372;8.166;2022-08-14T03:28:23;3.10;;;1.80;;
14100;SDS011;7127;49.372;8.166;2022-08-14T03:30:55;1.93;;;1.77;;
14100;SDS011;7127;49.372;8.166;2022-08-14T03:33:31;2.00;;;1.80;;
14100;SDS011;7127;49.372;8.166;2022-08-14T03:36:08;1.73;;;1.63;;
14100;SDS011;7127;49.372;8.166;2022-08-14T03:38:52;1.97;;;1.77;;
14100;SDS011;7127;49.372;8.166;2022-08-14T03:41:20;2.07;;;1.90;;
14100;SDS011;7127;49.372;8.166;2022-08-14T03:43:54;2.03;;;1.93;;
14100;SDS011;7127;49.372;8.166;2022-08-14T03:46:27;2.23;;;2.03;;
14100;SDS011;7127;49.372;8.166;2022-08-14T03:49:04;2.10;;;1.90;;
14100;SDS011;7127;49.372;8.166;2022-08-14T03:51:35;2.03;;;1.83;;
14100;SDS011;7127;49.372;8.166;2022-08-14T03:54:06;1.93;;;1.83;;
14100;SDS011;7127;49.372;8.166;2022-08-14T03:56:37;2.50;;;2.07;;
14100;SDS011;7127;49.372;8.166;2022-08-14T03:59:10;1.97;;;1.80;;
14100;SDS011;7127;49.372;8.166;2022-08-14T04:01:39;1.93;;;1.83;;
14100;SDS011;7127;49.372;8.166;2022-08-14T04:04:20;1.90;;;1.80;;
14100;SDS011;7127;49.372;8.166;2022-08-14T04:06:54;1.80;;;1.70;;
14100;SDS011;7127;49.372;8.166;2022-08-14T04:09:24;1.80;;;1.70;;
14100;SDS011;7127;49.372;8.166;2022-08-14T04:11:56;1.90;;;1.80;;
14100;SDS011;7127;49.372;8.166;2022-08-14T04:14:28;2.20;;;2.00;;
14100;SDS011;7127;49.372;8.166;2022-08-14T04:17:05;2.40;;;1.83;;
14100;SDS011;7127;49.372;8.166;2022-08-14T04:19:37;3.00;;;2.20;;
14100;SDS011;7127;49.372;8.166;2022-08-14T04:22:21;2.20;;;1.80;;
14100;SDS011;7127;49.372;8.166;2022-08-14T04:25:01;2.00;;;1.90;;
14100;SDS011;7127;49.372;8.166;2022-08-14T04:27:34;1.80;;;1.70;;
14100;SDS011;7127;49.372;8.166;2022-08-14T04:30:08;1.90;;;1.80;;
14100;SDS011;7127;49.372;8.166;2022-08-14T04:32:39;2.33;;;2.13;;
14100;SDS011;7127;49.372;8.166;2022-08-14T04:35:14;2.10;;;1.90;;
14100;SDS011;7127;49.372;8.166;2022-08-14T04:37:44;1.83;;;1.73;;
14100;SDS011;7127;49.372;8.166;2022-08-14T04:40:28;1.80;;;1.70;;
14100;SDS011;7127;49.372;8.166;2022-08-14T04:43:15;2.20;;;1.93;;
14100;SDS011;7127;49.372;8.166;2022-08-14T04:46:12;2.07;;;1.87;;
14100;SDS011;7127;49.372;8.166;2022-08-14T04:48:40;2.40;;;2.20;;
14100;SDS011;7127;49.372;8.166;2022-08-14T04:51:11;2.33;;;2.13;;
14100;SDS011;7127;49.372;8.166;2022-08-14T04:53:49;1.90;;;1.80;;
14100;SDS011;7127;49.372;8.166;2022-08-14T04:56:23;1.93;;;1.83;;
14100;SDS011;7127;49.372;8.166;2022-08-14T04:59:03;1.97;;;1.87;;
14100;SDS011;7127;49.372;8.166;2022-08-14T05:01:38;2.67;;;1.93;;
14100;SDS011;7127;49.372;8.166;2022-08-14T05:04:08;1.83;;;1.73;;
14100;SDS011;7127;49.372;8.166;2022-08-14T05:06:39;2.23;;;1.80;;
14100;SDS011;7127;49.372;8.166;2022-08-14T05:09:07;2.40;;;2.20;;
14100;SDS011;7127;49.372;8.166;2022-08-14T05:11:34;2.23;;;2.07;;
14100;SDS011;7127;49.372;8.166;2022-08-14T05:14:04;2.00;;;1.90;;
14100;SDS011;7127;49.372;8.166;2022-08-14T05:16:32;2.20;;;1.97;;
14100;SDS011;7127;49.372;8.166;2022-08-14T05:19:03;2.30;;;2.10;;
14100;SDS011;7127;49.372;8.166;2022-08-14T05:21:38;2.20;;;2.00;;
14100;SDS011;7127;49.372;8.166;2022-08-14T05:24:08;2.13;;;2.03;;
14100;SDS011;7127;49.372;8.166;2022-08-14T05:26:38;1.80;;;1.70;;
14100;SDS011;7127;49.372;8.166;2022-08-14T05:29:10;2.33;;;2.13;;
14100;SDS011;7127;49.372;8.166;2022-08-14T05:31:42;2.20;;;2.00;;
14100;SDS011;7127;49.372;8.166;2022-08-14T05:34:13;1.93;;;1.83;;
14100;SDS011;7127;49.372;8.166;2022-08-14T05:36:46;2.07;;;1.97;;
14100;SDS011;7127;49.372;8.166;2022-08-14T05:39:23;2.20;;;2.10;;
14100;SDS011;7127;49.372;8.166;2022-08-14T05:41:50;1.97;;;1.87;;
14100;SDS011;7127;49.372;8.166;2022-08-14T05:44:17;2.43;;;2.13;;
14100;SDS011;7127;49.372;8.166;2022-08-14T05:46:44;2.10;;;1.83;;
14100;SDS011;7127;49.372;8.166;2022-08-14T05:49:14;2.33;;;2.13;;
14100;SDS011;7127;49.372;8.166;2022-08-14T05:51:41;2.87;;;2.40;;
14100;SDS011;7127;49.372;8.166;2022-08-14T05:54:10;2.17;;;1.97;;
14100;SDS011;7127;49.372;8.166;2022-08-14T05:56:37;2.20;;;1.97;;
14100;SDS011;7127;49.372;8.166;2022-08-14T05:59:04;2.30;;;1.97;;
14100;SDS011;7127;49.372;8.166;2022-08-14T06:01:31;2.33;;;2.13;;
14100;SDS011;7127;49.372;8.166;2022-08-14T06:03:59;2.50;;;2.30;;
14100;SDS011;7127;49.372;8.166;2022-08-14T06:06:27;2.17;;;2.00;;
14100;SDS011;7127;49.372;8.166;2022-08-14T06:08:54;2.13;;;2.00;;
14100;SDS011;7127;49.372;8.166;2022-08-14T06:11:21;3.43;;;2.13;;
14100;SDS011;7127;49.372;8.166;2022-08-14T06:13:49;2.20;;;2.07;;
14100;SDS011;7127;49.372;8.166;2022-08-14T06:16:16;2.50;;;2.30;;
14100;SDS011;7127;49.372;8.166;2022-08-14T06:18:44;2.57;;;2.37;;
14100;SDS011;7127;49.372;8.166;2022-08-14T06:21:13;3.03;;;2.73;;
14100;SDS011;7127;49.372;8.166;2022-08-14T06:23:41;3.90;;;2.80;;
14100;SDS011;7127;49.372;8.166;2022-08-14T06:26:09;3.10;;;2.77;;
14100;SDS011;7127;49.372;8.166;2022-08-14T06:28:36;4.13;;;3.40;;
14100;SDS011;7127;49.372;8.166;2022-08-14T06:31:03;3.30;;;3.00;;
14100;SDS011;7127;49.372;8.166;2022-08-14T06:33:30;3.57;;;3.27;;
14100;SDS011;7127;49.372;8.166;2022-08-14T06:35:58;3.47;;;3.17;;
14100;SDS011;7127;49.372;8.166;2022-08-14T06:38:25;3.73;;;3.40;;
14100;SDS011;7127;49.372;8.166;2022-08-14T06:40:53;3.30;;;3.00;;
14100;SDS011;7127;49.372;8.166;2022-08-14T06:43:20;3.50;;;3.20;;
14100;SDS011;7127;49.372;8.166;2022-08-14T06:45:47;3.50;;;2.90;;
14100;SDS011;7127;49.372;8.166;2022-08-14T06:48:16;3.50;;;3.20;;
14100;SDS011;7127;49.372;8.166;2022-08-14T06:50:45;3.60;;;3.30;;
14100;SDS011;7127;49.372;8.166;2022-08-14T06:53:13;4.00;;;3.60;;
14100;SDS011;7127;49.372;8.166;2022-08-14T06:55:44;4.80;;;4.10;;
14100;SDS011;7127;49.372;8.166;2022-08-14T06:58:14;5.00;;;3.97;;
14100;SDS011;7127;49.372;8.166;2022-08-14T07:00:43;4.60;;;4.10;;
14100;SDS011;7127;49.372;8.166;2022-08-14T07:03:25;4.23;;;3.83;;
14100;SDS011;7127;49.372;8.166;2022-08-14T07:06:11;4.30;;;3.90;;
14100;SDS011;7127;49.372;8.166;2022-08-14T07:08:38;4.23;;;3.83;;
14100;SDS011;7127;49.372;8.166;2022-08-14T07:11:07;3.73;;;3.43;;
14100;SDS011;7127;49.372;8.166;2022-08-14T07:13:36;4.07;;;3.67;;
14100;SDS011;7127;49.372;8.166;2022-08-14T07:16:03;4.37;;;3.97;;
14100;SDS011;7127;49.372;8.166;2022-08-14T07:18:31;4.50;;;4.10;;
14100;SDS011;7127;49.372;8.166;2022-08-14T07:21:00;4.70;;;4.30;;
14100;SDS011;7127;49.372;8.166;2022-08-14T07:23:29;4.67;;;3.73;;
14100;SDS011;7127;49.372;8.166;2022-08-14T07:25:57;3.57;;;3.27;;
14100;SDS011;7127;49.372;8.166;2022-08-14T07:28:27;4.13;;;3.23;;
14100;SDS011;7127;49.372;8.166;2022-08-14T07:31:00;3.60;;;3.30;;
14100;SDS011;7127;49.372;8.166;2022-08-14T07:33:30;3.43;;;3.00;;
14100;SDS011;7127;49.372;8.166;2022-08-14T07:35:59;3.57;;;3.27;;
14100;SDS011;7127;49.372;8.166;2022-08-14T07:38:28;3.30;;;3.00;;
14100;SDS011;7127;49.372;8.166;2022-08-14T07:40:56;2.87;;;2.67;;
14100;SDS011;7127;49.372;8.166;2022-08-14T07:43:23;2.90;;;2.70;;
14100;SDS011;7127;49.372;8.166;2022-08-14T07:45:51;3.00;;;2.78;;
14100;SDS011;7127;49.372;8.166;2022-08-14T07:48:20;3.13;;;2.93;;
14100;SDS011;7127;49.372;8.166;2022-08-14T07:50:47;3.60;;;3.30;;
14100;SDS011;7127;49.372;8.166;2022-08-14T07:53:15;3.33;;;3.03;;
14100;SDS011;7127;49.372;8.166;2022-08-14T07:55:42;2.90;;;2.70;;
14100;SDS011;7127;49.372;8.166;2022-08-14T07:58:10;3.88;;;3.22;;
14100;SDS011;7127;49.372;8.166;2022-08-14T08:00:38;3.50;;;3.20;;
14100;SDS011;7127;49.372;8.166;2022-08-14T08:03:06;3.67;;;3.38;;
14100;SDS011;7127;49.372;8.166;2022-08-14T08:05:36;3.60;;;3.30;;
14100;SDS011;7127;49.372;8.166;2022-08-14T08:08:05;4.05;;;3.70;;
14100;SDS011;7127;49.372;8.166;2022-08-14T08:10:33;3.30;;;3.00;;
14100;SDS011;7127;49.372;8.166;2022-08-14T08:13:04;4.15;;;3.53;;
14100;SDS011;7127;49.372;8.166;2022-08-14T08:15:39;3.83;;;3.50;;
14100;SDS011;7127;49.372;8.166;2022-08-14T08:18:09;3.50;;;3.20;;
14100;SDS011;7127;49.372;8.166;2022-08-14T08:20:40;3.33;;;3.03;;
14100;SDS011;7127;49.372;8.166;2022-08-14T08:23:10;3.42;;;3.13;;
14100;SDS011;7127;49.372;8.166;2022-08-14T08:25:40;3.28;;;2.97;;
14100;SDS011;7127;49.372;8.166;2022-08-14T08:28:12;3.80;;;3.15;;
14100;SDS011;7127;49.372;8.166;2022-08-14T08:30:45;3.42;;;3.15;;
14100;SDS011;7127;49.372;8.166;2022-08-14T08:33:14;3.30;;;3.10;;
14100;SDS011;7127;49.372;8.166;2022-08-14T08:35:43;3.22;;;2.90;;
14100;SDS011;7127;49.372;8.166;2022-08-14T08:38:11;3.30;;;3.00;;
14100;SDS011;7127;49.372;8.166;2022-08-14T08:40:42;3.95;;;3.60;;
14100;SDS011;7127;49.372;8.166;2022-08-14T08:43:16;3.00;;;2.80;;
14100;SDS011;7127;49.372;8.166;2022-08-14T08:45:52;3.78;;;3.38;;
14100;SDS011;7127;49.372;8.166;2022-08-14T08:48:21;3.50;;;3.20;;
14100;SDS011;7127;49.372;8.166;2022-08-14T08:50:54;3.30;;;3.00;;
14100;SDS011;7127;49.372;8.166;2022-08-14T08:53:28;3.45;;;3.15;;
14100;SDS011;7127;49.372;8.166;2022-08-14T08:55:56;3.03;;;2.83;;
14100;SDS011;7127;49.372;8.166;2022-08-14T08:58:24;3.10;;;2.80;;
14100;SDS011;7127;49.372;8.166;2022-08-14T09:00:53;3.95;;;3.20;;
14100;SDS011;7127;49.372;8.166;2022-08-14T09:03:22;2.83;;;2.63;;
14100;SDS011;7127;49.372;8.166;2022-08-14T09:05:54;2.80;;;2.60;;
14100;SDS011;7127;49.372;8.166;2022-08-14T09:08:26;2.65;;;2.45;;
14100;SDS011;7127;49.372;8.166;2022-08-14T09:10:55;3.10;;;2.78;;
14100;SDS011;7127;49.372;8.166;2022-08-14T09:13:23;3.13;;;2.85;;
14100;SDS011;7127;49.372;8.166;2022-08-14T09:15:51;3.50;;;3.10;;
14100;SDS011;7127;49.372;8.166;2022-08-14T09:18:20;3.28;;;2.97;;
14100;SDS011;7127;49.372;8.166;2022-08-14T09:20:48;3.42;;;3.05;;
14100;SDS011;7127;49.372;8.166;2022-08-14T09:23:18;3.10;;;2.80;;
14100;SDS011;7127;49.372;8.166;2022-08-14T09:25:46;2.90;;;2.67;;
14100;SDS011;7127;49.372;8.166;2022-08-14T09:28:16;3.08;;;2.78;;
14100;SDS011;7127;49.372;8.166;2022-08-14T09:30:47;2.60;;;2.40;;
14100;SDS011;7127;49.372;8.166;2022-08-14T09:33:25;3.25;;;2.95;;
14100;SDS011;7127;49.372;8.166;2022-08-14T09:36:22;3.80;;;2.97;;
14100;SDS011;7127;49.372;8.166;2022-08-14T09:39:22;3.17;;;2.85;;
14100;SDS011;7127;49.372;8.166;2022-08-14T09:42:11;2.63;;;2.42;;
14100;SDS011;7127;49.372;8.166;2022-08-14T09:44:54;2.50;;;2.30;;
14100;SDS011;7127;49.372;8.166;2022-08-14T09:47:41;2.60;;;2.40;;
14100;SDS011;7127;49.372;8.166;2022-08-14T09:50:17;2.60;;;2.40;;
14100;SDS011;7127;49.372;8.166;2022-08-14T09:52:47;2.53;;;2.33;;
14100;SDS011;7127;49.372;8.166;2022-08-14T09:55:18;3.00;;;2.70;;
14100;SDS011;7127;49.372;8.166;2022-08-14T09:57:48;3.20;;;2.80;;
14100;SDS011;7127;49.372;8.166;2022-08-14T10:00:34;2.72;;;2.35;;
14100;SDS011;7127;49.372;8.166;2022-08-14T10:03:09;2.63;;;2.42;;
14100;SDS011;7127;49.372;8.166;2022-08-14T10:05:36;2.53;;;2.30;;
14100;SDS011;7127;49.372;8.166;2022-08-14T10:08:14;3.20;;;2.97;;
14100;SDS011;7127;49.372;8.166;2022-08-14T10:10:45;3.17;;;2.58;;
14100;SDS011;7127;49.372;8.166;2022-08-14T10:13:23;2.72;;;2.53;;
14100;SDS011;7127;49.372;8.166;2022-08-14T10:15:56;3.47;;;2.80;;
14100;SDS011;7127;49.372;8.166;2022-08-14T10:18:25;3.00;;;2.30;;
14100;SDS011;7127;49.372;8.166;2022-08-14T10:20:54;2.40;;;2.20;;
14100;SDS011;7127;49.372;8.166;2022-08-14T10:23:25;2.58;;;2.33;;
14100;SDS011;7127;49.372;8.166;2022-08-14T10:28:49;2.10;;;2.00;;
14100;SDS011;7127;49.372;8.166;2022-08-14T10:31:32;2.50;;;2.30;;
14100;SDS011;7127;49.372;8.166;2022-08-14T10:34:03;2.90;;;2.60;;
14100;SDS011;7127;49.372;8.166;2022-08-14T10:36:32;2.35;;;2.08;;
14100;SDS011;7127;49.372;8.166;2022-08-14T10:39:01;3.65;;;1.92;;
14100;SDS011;7127;49.372;8.166;2022-08-14T10:41:35;2.30;;;1.80;;
14100;SDS011;7127;49.372;8.166;2022-08-14T10:44:05;2.10;;;2.00;;
14100;SDS011;7127;49.372;8.166;2022-08-14T10:46:38;2.70;;;1.90;;
14100;SDS011;7127;49.372;8.166;2022-08-14T10:49:15;1.75;;;1.65;;
14100;SDS011;7127;49.372;8.166;2022-08-14T10:51:53;2.35;;;2.15;;
14100;SDS011;7127;49.372;8.166;2022-08-14T10:54:28;2.03;;;1.90;;
14100;SDS011;7127;49.372;8.166;2022-08-14T10:57:11;2.53;;;1.80;;
14100;SDS011;7127;49.372;8.166;2022-08-14T10:59:45;1.90;;;1.80;;
14100;SDS011;7127;49.372;8.166;2022-08-14T11:02:17;2.10;;;2.00;;
14100;SDS011;7127;49.372;8.166;2022-08-14T11:05:04;2.20;;;2.00;;
14100;SDS011;7127;49.372;8.166;2022-08-14T11:07:33;1.65;;;1.50;;
14100;SDS011;7127;49.372;8.166;2022-08-14T11:10:05;1.77;;;1.67;;
14100;SDS011;7127;49.372;8.166;2022-08-14T11:12:39;1.95;;;1.80;;
14100;SDS011;7127;49.372;8.166;2022-08-14T11:15:10;1.60;;;1.50;;
14100;SDS011;7127;49.372;8.166;2022-08-14T11:17:38;1.80;;;1.70;;
14100;SDS011;7127;49.372;8.166;2022-08-14T11:20:07;2.30;;;1.77;;
14100;SDS011;7127;49.372;8.166;2022-08-14T11:22:36;2.20;;;1.77;;
14100;SDS011;7127;49.372;8.166;2022-08-14T11:25:07;1.90;;;1.70;;
14100;SDS011;7127;49.372;8.166;2022-08-14T11:27:36;1.67;;;1.58;;
14100;SDS011;7127;49.372;8.166;2022-08-14T11:30:08;1.90;;;1.70;;
14100;SDS011;7127;49.372;8.166;2022-08-14T11:32:37;2.25;;;1.70;;
14100;SDS011;7127;49.372;8.166;2022-08-14T11:35:09;1.48;;;1.38;;
14100;SDS011;7127;49.372;8.166;2022-08-14T11:37:50;1.95;;;1.65;;
14100;SDS011;7127;49.372;8.166;2022-08-14T11:40:18;4.00;;;1.67;;
14100;SDS011;7127;49.372;8.166;2022-08-14T11:42:49;1.40;;;1.30;;
14100;SDS011;7127;49.372;8.166;2022-08-14T11:45:20;2.13;;;1.75;;
14100;SDS011;7127;49.372;8.166;2022-08-14T11:47:49;2.97;;;1.60;;
14100;SDS011;7127;49.372;8.166;2022-08-14T11:50:17;1.65;;;1.40;;
14100;SDS011;7127;49.372;8.166;2022-08-14T11:52:47;1.70;;;1.60;;
14100;SDS011;7127;49.372;8.166;2022-08-14T11:55:18;1.85;;;1.75;;
14100;SDS011;7127;49.372;8.166;2022-08-14T11:57:45;1.60;;;1.50;;
14100;SDS011;7127;49.372;8.166;2022-08-14T12:00:15;1.52;;;1.42;;
14100;SDS011;7127;49.372;8.166;2022-08-14T12:02:49;1.60;;;1.50;;
14100;SDS011;7127;49.372;8.166;2022-08-14T12:05:28;2.17;;;1.50;;
14100;SDS011;7127;49.372;8.166;2022-08-14T12:07:57;2.55;;;1.33;;
14100;SDS011;7127;49.372;8.166;2022-08-14T12:10:25;1.60;;;1.50;;
14100;SDS011;7127;49.372;8.166;2022-08-14T12:12:53;2.80;;;1.30;;
14100;SDS011;7127;49.372;8.166;2022-08-14T12:15:29;1.27;;;1.17;;
14100;SDS011;7127;49.372;8.166;2022-08-14T12:17:58;1.60;;;1.42;;
14100;SDS011;7127;49.372;8.166;2022-08-14T12:20:29;2.45;;;1.30;;
14100;SDS011;7127;49.372;8.166;2022-08-14T12:22:58;1.60;;;1.50;;
14100;SDS011;7127;49.372;8.166;2022-08-14T12:25:27;1.60;;;1.27;;
14100;SDS011;7127;49.372;8.166;2022-08-14T12:27:55;1.40;;;1.30;;
14100;SDS011;7127;49.372;8.166;2022-08-14T12:30:25;1.17;;;1.13;;
14100;SDS011;7127;49.372;8.166;2022-08-14T12:32:57;1.58;;;1.33;;
14100;SDS011;7127;49.372;8.166;2022-08-14T12:35:34;1.33;;;1.23;;
14100;SDS011;7127;49.372;8.166;2022-08-14T12:38:02;1.58;;;1.48;;
14100;SDS011;7127;49.372;8.166;2022-08-14T12:40:29;1.30;;;1.20;;
14100;SDS011;7127;49.372;8.166;2022-08-14T12:42:58;1.40;;;1.27;;
14100;SDS011;7127;49.372;8.166;2022-08-14T12:45:32;2.30;;;1.15;;
14100;SDS011;7127;49.372;8.166;2022-08-14T12:48:01;1.40;;;1.30;;
14100;SDS011;7127;49.372;8.166;2022-08-14T12:50:36;1.30;;;1.20;;
14100;SDS011;7127;49.372;8.166;2022-08-14T12:53:05;1.77;;;1.38;;
14100;SDS011;7127;49.372;8.166;2022-08-14T12:55:33;1.23;;;1.13;;
14100;SDS011;7127;49.372;8.166;2022-08-14T12:58:01;1.40;;;1.30;;
14100;SDS011;7127;49.372;8.166;2022-08-14T13:00:32;1.20;;;1.10;;
14100;SDS011;7127;49.372;8.166;2022-08-14T13:03:01;1.42;;;1.33;;
14100;SDS011;7127;49.372;8.166;2022-08-14T13:05:30;1.27;;;1.17;;
14100;SDS011;7127;49.372;8.166;2022-08-14T13:08:00;1.58;;;1.10;;
14100;SDS011;7127;49.372;8.166;2022-08-14T13:10:30;1.25;;;1.15;;
14100;SDS011;7127;49.372;8.166;2022-08-14T13:12:58;0.98;;;0.98;;
14100;SDS011;7127;49.372;8.166;2022-08-14T13:15:26;1.00;;;1.00;;
14100;SDS011;7127;49.372;8.166;2022-08-14T13:17:55;1.17;;;1.15;;
14100;SDS011;7127;49.372;8.166;2022-08-14T13:20:24;0.98;;;0.95;;
14100;SDS011;7127;49.372;8.166;2022-08-14T13:22:52;1.13;;;1.10;;
14100;SDS011;7127;49.372;8.166;2022-08-14T13:25:20;1.15;;;1.10;;
14100;SDS011;7127;49.372;8.166;2022-08-14T13:27:50;1.10;;;1.10;;
14100;SDS011;7127;49.372;8.166;2022-08-14T13:30:19;1.15;;;1.10;;
14100;SDS011;7127;49.372;8.166;2022-08-14T13:32:49;3.22;;;1.10;;
14100;SDS011;7127;49.372;8.166;2022-08-14T13:35:18;1.20;;;1.05;;
14100;SDS011;7127;49.372;8.166;2022-08-14T13:37:46;1.88;;;1.13;;
14100;SDS011;7127;49.372;8.166;2022-08-14T13:40:14;1.15;;;1.10;;
14100;SDS011;7127;49.372;8.166;2022-08-14T13:42:44;1.15;;;1.05;;
14100;SDS011;7127;49.372;8.166;2022-08-14T13:45:12;1.08;;;1.00;;
14100;SDS011;7127;49.372;8.166;2022-08-14T13:47:40;1.10;;;1.10;;
14100;SDS011;7127;49.372;8.166;2022-08-14T13:50:09;1.30;;;1.20;;
14100;SDS011;7127;49.372;8.166;2022-08-14T13:52:41;1.17;;;1.13;;
14100;SDS011;7127;49.372;8.166;2022-08-14T13:55:11;1.17;;;1.08;;
14100;SDS011;7127;49.372;8.166;2022-08-14T13:57:43;0.95;;;0.95;;
14100;SDS011;7127;49.372;8.166;2022-08-14T14:00:12;1.17;;;1.10;;
14100;SDS011;7127;49.372;8.166;2022-08-14T14:02:41;1.08;;;1.00;;
14100;SDS011;7127;49.372;8.166;2022-08-14T14:05:09;1.17;;;1.08;;
14100;SDS011;7127;49.372;8.166;2022-08-14T14:07:45;1.20;;;1.10;;
14100;SDS011;7127;49.372;8.166;2022-08-14T14:10:15;1.05;;;1.00;;
14100;SDS011;7127;49.372;8.166;2022-08-14T14:12:45;0.95;;;0.95;;
14100;SDS011;7127;49.372;8.166;2022-08-14T14:15:13;1.40;;;1.10;;
14100;SDS011;7127;49.372;8.166;2022-08-14T14:17:41;0.90;;;0.90;;
14100;SDS011;7127;49.372;8.166;2022-08-14T14:20:11;1.10;;;1.00;;
14100;SDS011;7127;49.372;8.166;2022-08-14T14:22:40;1.42;;;0.98;;
14100;SDS011;7127;49.372;8.166;2022-08-14T14:25:10;0.98;;;0.98;;
14100;SDS011;7127;49.372;8.166;2022-08-14T14:27:40;0.95;;;0.95;;
14100;SDS011;7127;49.372;8.166;2022-08-14T14:30:09;1.30;;;1.20;;
14100;SDS011;7127;49.372;8.166;2022-08-14T14:32:38;1.10;;;1.10;;
14100;SDS011;7127;49.372;8.166;2022-08-14T14:35:08;2.47;;;1.38;;
14100;SDS011;7127;49.372;8.166;2022-08-14T14:37:37;1.85;;;1.20;;
14100;SDS011;7127;49.372;8.166;2022-08-14T14:40:05;1.00;;;1.00;;
14100;SDS011;7127;49.372;8.166;2022-08-14T14:42:35;1.10;;;1.10;;
14100;SDS011;7127;49.372;8.166;2022-08-14T14:45:10;0.88;;;0.85;;
14100;SDS011;7127;49.372;8.166;2022-08-14T14:47:39;0.90;;;0.90;;
14100;SDS011;7127;49.372;8.166;2022-08-14T14:50:08;1.00;;;1.00;;
14100;SDS011;7127;49.372;8.166;2022-08-14T14:52:36;0.90;;;0.90;;
14100;SDS011;7127;49.372;8.166;2022-08-14T14:55:04;1.05;;;1.05;;
14100;SDS011;7127;49.372;8.166;2022-08-14T14:57:33;1.17;;;1.08;;
14100;SDS011;7127;49.372;8.166;2022-08-14T15:00:03;1.20;;;1.10;;
14100;SDS011;7127;49.372;8.166;2022-08-14T15:02:32;1.45;;;1.20;;
14100;SDS011;7127;49.372;8.166;2022-08-14T15:05:02;1.58;;;1.10;;
14100;SDS011;7127;49.372;8.166;2022-08-14T15:07:32;1.42;;;1.00;;
14100;SDS011;7127;49.372;8.166;2022-08-14T15:09:59;1.40;;;1.30;;
14100;SDS011;7127;49.372;8.166;2022-08-14T15:12:26;1.67;;;1.13;;
14100;SDS011;7127;49.372;8.166;2022-08-14T15:14:55;1.50;;;1.20;;
14100;SDS011;7127;49.372;8.166;2022-08-14T15:17:22;1.08;;;0.98;;
14100;SDS011;7127;49.372;8.166;2022-08-14T15:19:50;1.02;;;1.02;;
14100;SDS011;7127;49.372;8.166;2022-08-14T15:22:18;1.35;;;1.25;;
14100;SDS011;7127;49.372;8.166;2022-08-14T15:24:46;1.02;;;1.02;;
14100;SDS011;7127;49.372;8.166;2022-08-14T15:27:14;0.95;;;0.95;;
14100;SDS011;7127;49.372;8.166;2022-08-14T15:29:41;1.33;;;1.05;;
14100;SDS011;7127;49.372;8.166;2022-08-14T15:32:11;0.90;;;0.90;;
14100;SDS011;7127;49.372;8.166;2022-08-14T15:34:38;0.90;;;0.90;;
14100;SDS011;7127;49.372;8.166;2022-08-14T15:37:09;1.30;;;1.20;;
14100;SDS011;7127;49.372;8.166;2022-08-14T15:39:37;2.08;;;1.38;;
14100;SDS011;7127;49.372;8.166;2022-08-14T15:42:04;1.15;;;1.10;;
14100;SDS011;7127;49.372;8.166;2022-08-14T15:44:33;1.35;;;0.95;;
14100;SDS011;7127;49.372;8.166;2022-08-14T15:47:00;0.82;;;0.82;;
14100;SDS011;7127;49.372;8.166;2022-08-14T15:49:32;1.00;;;1.00;;
14100;SDS011;7127;49.372;8.166;2022-08-14T15:51:59;0.90;;;0.90;;
14100;SDS011;7127;49.372;8.166;2022-08-14T15:54:28;1.20;;;1.10;;
14100;SDS011;7127;49.372;8.166;2022-08-14T15:56:56;0.80;;;0.80;;
14100;SDS011;7127;49.372;8.166;2022-08-14T15:59:24;1.40;;;1.20;;
14100;SDS011;7127;49.372;8.166;2022-08-14T16:01:51;1.20;;;1.10;;
14100;SDS011;7127;49.372;8.166;2022-08-14T16:04:18;1.15;;;1.10;;
14100;SDS011;7127;49.372;8.166;2022-08-14T16:06:49;2.55;;;1.30;;
14100;SDS011;7127;49.372;8.166;2022-08-14T16:09:17;1.38;;;1.27;;
14100;SDS011;7127;49.372;8.166;2022-08-14T16:11:44;1.90;;;1.30;;
14100;SDS011;7127;49.372;8.166;2022-08-14T16:14:11;1.48;;;1.20;;
14100;SDS011;7127;49.372;8.166;2022-08-14T16:16:38;1.27;;;1.02;;
14100;SDS011;7127;49.372;8.166;2022-08-14T16:19:06;0.90;;;0.90;;
14100;SDS011;7127;49.372;8.166;2022-08-14T16:21:34;0.93;;;0.93;;
14100;SDS011;7127;49.372;8.166;2022-08-14T16:24:06;1.27;;;1.10;;
14100;SDS011;7127;49.372;8.166;2022-08-14T16:26:33;1.10;;;1.00;;
14100;SDS011;7127;49.372;8.166;2022-08-14T16:29:00;1.00;;;1.00;;
14100;SDS011;7127;49.372;8.166;2022-08-14T16:31:29;0.70;;;0.70;;
14100;SDS011;7127;49.372;8.166;2022-08-14T16:33:56;1.00;;;0.80;;